createdAt,value
2023-05-11T00:01:13.027Z,101056.38
2023-05-11T00:03:25.696Z,101056.98
2023-05-11T00:05:38.527Z,101060.98
2023-05-11T00:07:54.464Z,101060.73
2023-05-11T00:10:07.212Z,101057.05
2023-05-11T00:12:19.652Z,101056.85
2023-05-11T00:14:32.326Z,101058.95
2023-05-11T00:16:44.887Z,101057.61
2023-05-11T00:18:57.722Z,101055.58
2023-05-11T00:21:10.565Z,101055.67
2023-05-11T00:23:23.122Z,101056.61
2023-05-11T00:25:36.071Z,101049.34
2023-05-11T00:27:48.584Z,101053.86
2023-05-11T00:30:01.169Z,101056.02
2023-05-11T00:32:25.278Z,101056.02
2023-05-11T00:34:37.887Z,101054.71
2023-05-11T00:36:50.659Z,101055.70
2023-05-11T00:39:03.152Z,101054.76
2023-05-11T00:41:16.101Z,101054.83
2023-05-11T00:43:28.748Z,101054.20
2023-05-11T00:45:41.611Z,101055.98
2023-05-11T00:47:54.464Z,101058.33
2023-05-11T00:50:07.658Z,101058.46
2023-05-11T00:52:31.377Z,101057.69
2023-05-11T00:54:44.558Z,101060.10
2023-05-11T00:56:57.689Z,101056.27
2023-05-11T00:59:10.723Z,101061.90
2023-05-11T01:01:23.594Z,101059.31
2023-05-11T01:03:41.126Z,101060.20
2023-05-11T01:06:01.729Z,101059.23
2023-05-11T01:08:20.920Z,101058.08
2023-05-11T01:10:43.504Z,101055.77
2023-05-11T01:13:02.518Z,101057.67
2023-05-11T01:15:37.461Z,101052.90
2023-05-11T01:17:59.495Z,101055.23
2023-05-11T01:20:19.755Z,101052.47
2023-05-11T01:22:52.335Z,101052.73
2023-05-11T01:25:36.197Z,101053.73
2023-05-11T01:28:13.480Z,101052.98
2023-05-11T01:30:43.353Z,101055.04
2023-05-11T01:32:57.975Z,101055.17
2023-05-11T01:35:25.247Z,101054.25
2023-05-11T01:37:39.783Z,101051.59
2023-05-11T01:39:57.596Z,101051.28
2023-05-11T01:42:13.076Z,101053.08
2023-05-11T01:44:28.836Z,101058.52
2023-05-11T01:46:42.837Z,101057.39
2023-05-11T01:49:00.563Z,101057.00
2023-05-11T01:51:17.818Z,101057.61
2023-05-11T01:53:35.626Z,101057.89
2023-05-11T01:55:48.836Z,101061.19
2023-05-11T01:58:02.844Z,101059.56
2023-05-11T02:00:19.993Z,101062.38
2023-05-11T02:02:40.451Z,101062.85
2023-05-11T02:04:54.691Z,101064.73
2023-05-11T02:07:09.774Z,101072.54
2023-05-11T02:09:25.008Z,101077.10
2023-05-11T02:11:39.247Z,101074.44
2023-05-11T02:13:53.976Z,101073.09
2023-05-11T02:16:08.144Z,101077.45
2023-05-11T02:18:22.636Z,101075.75
2023-05-11T02:20:42.377Z,101073.94
2023-05-11T02:23:06.260Z,101077.67
2023-05-11T02:25:20.026Z,101079.94
2023-05-11T02:27:37.017Z,101082.58
2023-05-11T02:29:50.158Z,101093.24
2023-05-11T02:32:10.424Z,101098.04
2023-05-11T02:34:27.741Z,101107.52
2023-05-11T02:36:45.017Z,101110.39
2023-05-11T02:39:20.400Z,101116.33
2023-05-11T02:41:35.189Z,101122.34
2023-05-11T02:43:52.988Z,101128.09
2023-05-11T02:46:09.956Z,101129.61
2023-05-11T02:48:30.185Z,101136.49
2023-05-11T02:50:46.500Z,101142.31
2023-05-11T02:53:02.727Z,101142.24
2023-05-11T02:55:18.366Z,101136.36
2023-05-11T02:57:31.663Z,101140.27
2023-05-11T02:59:48.361Z,101142.64
2023-05-11T03:02:01.554Z,101142.11
2023-05-11T03:04:17.942Z,101141.41
2023-05-11T03:06:30.596Z,101144.25
2023-05-11T03:08:44.031Z,101148.88
2023-05-11T03:11:03.973Z,101148.20
2023-05-11T03:13:28.404Z,101152.95
2023-05-11T03:15:44.948Z,101160.38
2023-05-11T03:17:58.579Z,101166.41
2023-05-11T03:20:18.036Z,101177.06
2023-05-11T03:22:31.128Z,101180.13
2023-05-11T03:24:44.147Z,101184.35
2023-05-11T03:26:58.458Z,101185.10
2023-05-11T03:29:15.006Z,101190.14
2023-05-11T03:31:27.634Z,101189.90
2023-05-11T03:33:41.529Z,101194.30
2023-05-11T03:36:02.468Z,101195.36
2023-05-11T03:38:18.369Z,101197.76
2023-05-11T03:40:34.346Z,101201.53
2023-05-11T03:42:48.888Z,101203.86
2023-05-11T03:45:03.553Z,101208.38
2023-05-11T03:47:18.724Z,101212.88
2023-05-11T03:49:32.504Z,101219.37
2023-05-11T03:51:45.883Z,101226.71
2023-05-11T03:53:59.246Z,101228.73
2023-05-11T03:56:12.765Z,101237.54
2023-05-11T03:58:25.233Z,101240.86
2023-05-11T04:00:44.198Z,101245.88
2023-05-11T04:03:17.256Z,101247.34
2023-05-11T04:05:30.522Z,101255.55
2023-05-11T04:07:44.844Z,101256.76
2023-05-11T04:09:57.664Z,101257.98
2023-05-11T04:12:10.998Z,101263.08
2023-05-11T04:14:24.041Z,101265.39
2023-05-11T04:16:36.999Z,101264.78
2023-05-11T04:18:49.659Z,101274.66
2023-05-11T04:21:22.275Z,101276.11
2023-05-11T04:23:38.301Z,101289.71
2023-05-11T04:25:51.035Z,101292.73
2023-05-11T04:28:03.688Z,101300.45
2023-05-11T04:30:18.209Z,101304.98
2023-05-11T04:32:31.451Z,101307.49
2023-05-11T04:34:44.514Z,101313.70
2023-05-11T04:37:01.672Z,101316.65
2023-05-11T04:39:14.949Z,101315.54
2023-05-11T04:41:28.432Z,101315.35
2023-05-11T04:43:43.311Z,101318.90
2023-05-11T04:45:56.527Z,101323.97
2023-05-11T04:48:12.219Z,101330.11
2023-05-11T04:50:25.515Z,101334.15
2023-05-11T04:52:57.954Z,101334.27
2023-05-11T04:55:12.235Z,101338.86
2023-05-11T04:57:28.278Z,101343.21
2023-05-11T04:59:44.186Z,101345.17
2023-05-11T05:02:07.907Z,101346.88
2023-05-11T05:04:23.516Z,101348.60
2023-05-11T05:06:40.210Z,101350.63
2023-05-11T05:08:52.854Z,101349.41
2023-05-11T05:11:09.089Z,101348.83
2023-05-11T05:13:32.827Z,101351.10
2023-05-11T05:15:56.866Z,101354.81
2023-05-11T05:18:19.951Z,101357.80
2023-05-11T05:20:32.654Z,101360.30
2023-05-11T05:22:45.183Z,101355.98
2023-05-11T05:25:00.850Z,101357.05
2023-05-11T05:27:14.457Z,101356.45
2023-05-11T05:29:27.662Z,101360.77
2023-05-11T05:31:40.626Z,101358.50
2023-05-11T05:33:54.243Z,101356.06
2023-05-11T05:36:07.864Z,101356.24
2023-05-11T05:38:21.348Z,101358.90
2023-05-11T05:40:38.403Z,101363.85
2023-05-11T05:42:51.441Z,101365.23
2023-05-11T05:45:08.885Z,101365.48
2023-05-11T05:47:21.512Z,101367.09
2023-05-11T05:49:35.987Z,101366.05
2023-05-11T05:51:51.757Z,101361.45
2023-05-11T05:54:04.483Z,101359.74
2023-05-11T05:56:17.203Z,101359.75
2023-05-11T05:58:29.687Z,101361.04
2023-05-11T06:00:43.210Z,101363.75
2023-05-11T06:02:56.302Z,101367.40
2023-05-11T06:05:12.458Z,101366.08
2023-05-11T06:07:28.038Z,101365.79
2023-05-11T06:09:51.744Z,101363.90
2023-05-11T06:12:04.800Z,101365.89
2023-05-11T06:14:18.484Z,101365.97
2023-05-11T06:16:31.557Z,101367.49
2023-05-11T06:18:46.930Z,101374.16
2023-05-11T06:21:19.900Z,101379.86
2023-05-11T06:23:35.487Z,101387.16
2023-05-11T06:25:51.228Z,101393.03
2023-05-11T06:28:05.507Z,101394.02
2023-05-11T06:30:25.002Z,101396.48
2023-05-11T06:32:38.591Z,101394.97
2023-05-11T06:34:51.904Z,101393.63
2023-05-11T06:37:06.753Z,101399.16
2023-05-11T06:39:19.317Z,101394.97
2023-05-11T06:41:32.339Z,101399.08
2023-05-11T06:43:45.094Z,101402.80
2023-05-11T06:46:17.243Z,101405.95
2023-05-11T06:48:30.783Z,101412.28
2023-05-11T06:50:53.949Z,101417.34
2023-05-11T06:53:11.858Z,101417.39
2023-05-11T06:55:24.523Z,101420.98
2023-05-11T06:57:37.371Z,101427.04
2023-05-11T06:59:50.126Z,101427.91
2023-05-11T07:02:02.605Z,101434.46
2023-05-11T07:04:15.442Z,101433.17
2023-05-11T07:06:28.267Z,101439.18
2023-05-11T07:08:40.660Z,101437.02
2023-05-11T07:10:53.461Z,101442.88
2023-05-11T07:13:06.459Z,101443.73
2023-05-11T07:15:19.105Z,101442.98
2023-05-11T07:17:31.703Z,101444.77
2023-05-11T07:19:44.507Z,101447.04
2023-05-11T07:21:57.237Z,101442.42
2023-05-11T07:24:10.683Z,101443.04
2023-05-11T07:26:23.176Z,101442.54
2023-05-11T07:28:35.535Z,101442.36
2023-05-11T07:30:48.386Z,101445.17
2023-05-11T07:33:00.865Z,101446.41
2023-05-11T07:35:16.069Z,101443.94
2023-05-11T07:37:28.405Z,101443.27
2023-05-11T07:39:41.185Z,101447.92
2023-05-11T07:41:53.766Z,101451.76
2023-05-11T07:44:08.211Z,101449.82
2023-05-11T07:46:20.828Z,101453.73
2023-05-11T07:48:33.487Z,101454.01
2023-05-11T07:50:45.846Z,101461.63
2023-05-11T07:53:01.435Z,101462.28
2023-05-11T07:55:14.974Z,101468.89
2023-05-11T07:57:27.543Z,101471.36
2023-05-11T07:59:40.368Z,101471.96
2023-05-11T08:01:56.550Z,101472.02
2023-05-11T08:04:09.167Z,101474.52
2023-05-11T08:06:21.918Z,101481.92
2023-05-11T08:08:34.976Z,101483.14
2023-05-11T08:10:47.551Z,101478.27
2023-05-11T08:13:00.147Z,101482.73
2023-05-11T08:15:14.512Z,101485.88
2023-05-11T08:17:27.052Z,101485.05
2023-05-11T08:19:39.285Z,101483.12
2023-05-11T08:21:51.639Z,101481.20
2023-05-11T08:24:04.110Z,101486.34
2023-05-11T08:26:17.129Z,101489.38
2023-05-11T08:28:40.663Z,101487.29
2023-05-11T08:31:04.116Z,101487.56
2023-05-11T08:33:36.728Z,101486.73
2023-05-11T08:35:50.271Z,101486.61
2023-05-11T08:38:02.822Z,101480.34
2023-05-11T08:40:17.920Z,101482.09
2023-05-11T08:42:32.384Z,101485.58
2023-05-11T08:44:48.655Z,101496.08
2023-05-11T08:47:18.825Z,101495.08
2023-05-11T08:49:34.058Z,101497.64
2023-05-11T08:51:46.458Z,101497.67
2023-05-11T08:54:00.815Z,101499.07
2023-05-11T08:56:16.224Z,101503.06
2023-05-11T08:58:29.546Z,101502.68
2023-05-11T09:00:42.571Z,101501.91
2023-05-11T09:02:56.226Z,101503.77
2023-05-11T09:05:09.769Z,101503.57
2023-05-11T09:07:23.400Z,101505.09
2023-05-11T09:09:37.111Z,101504.73
2023-05-11T09:11:50.300Z,101505.70
2023-05-11T09:14:03.072Z,101506.58
2023-05-11T09:16:32.641Z,101512.16
2023-05-11T09:19:02.222Z,101509.82
2023-05-11T09:21:15.728Z,101511.23
2023-05-11T09:23:31.041Z,101514.34
2023-05-11T09:25:43.785Z,101515.80
2023-05-11T09:27:56.756Z,101513.28
2023-05-11T09:30:23.472Z,101515.20
2023-05-11T09:32:52.875Z,101513.13
2023-05-11T09:35:21.760Z,101511.31
2023-05-11T09:37:34.856Z,101507.61
2023-05-11T09:42:20.584Z,101508.88
2023-05-11T09:44:39.188Z,101510.95
2023-05-11T09:46:52.192Z,101506.55
2023-05-11T09:49:06.600Z,101510.36
2023-05-11T09:51:22.210Z,101509.77
2023-05-11T09:53:44.204Z,101515.54
2023-05-11T09:55:59.499Z,101517.16
2023-05-11T09:58:12.269Z,101518.73
2023-05-11T10:03:11.270Z,101527.81
2023-05-11T10:05:23.652Z,101531.13
2023-05-11T10:07:37.331Z,101534.68
2023-05-11T10:09:49.549Z,101530.16
2023-05-11T10:12:02.760Z,101535.09
2023-05-11T10:14:17.186Z,101537.10
2023-05-11T10:16:29.549Z,101535.22
2023-05-11T10:18:42.466Z,101536.11
2023-05-11T10:20:55.410Z,101535.60
2023-05-11T10:23:08.445Z,101532.70
2023-05-11T10:25:21.356Z,101530.50
2023-05-11T10:31:10.321Z,101541.77
2023-05-11T10:33:23.436Z,101542.26
2023-05-11T10:35:36.631Z,101541.32
2023-05-11T10:37:48.973Z,101540.31
2023-05-11T10:40:03.092Z,101537.91
2023-05-11T10:42:39.202Z,101537.59
2023-05-11T10:45:22.614Z,101535.48
2023-05-11T10:48:17.683Z,101532.88
2023-05-11T10:50:49.591Z,101534.95
2023-05-11T10:53:19.227Z,101537.95
2023-05-11T10:55:46.878Z,101539.94
2023-05-11T10:58:11.793Z,101550.48
2023-05-11T11:00:57.216Z,101553.39
2023-05-11T11:03:17.382Z,101554.55
2023-05-11T11:05:41.025Z,101552.34
2023-05-11T11:08:10.307Z,101555.09
2023-05-11T11:10:35.999Z,101553.45
2023-05-11T11:13:07.934Z,101554.93
2023-05-11T11:15:20.444Z,101552.48
2023-05-11T11:17:36.039Z,101548.23
2023-05-11T11:19:48.330Z,101548.15
2023-05-11T11:22:01.230Z,101552.21
2023-05-11T11:24:33.842Z,101550.02
2023-05-11T11:26:55.384Z,101554.64
2023-05-11T11:29:19.732Z,101558.68
2023-05-11T11:31:34.558Z,101557.40
2023-05-11T11:33:47.114Z,101556.98
2023-05-11T11:36:00.452Z,101557.81
2023-05-11T11:38:13.758Z,101555.70
2023-05-11T11:40:50.655Z,101558.55
2023-05-11T11:43:16.072Z,101564.65
2023-05-11T11:45:39.618Z,101564.89
2023-05-11T11:48:15.933Z,101569.11
2023-05-11T11:50:33.549Z,101566.38
2023-05-11T11:52:46.090Z,101570.66
2023-05-11T11:55:00.720Z,101573.75
2023-05-11T11:57:52.233Z,101573.35
2023-05-11T12:00:06.608Z,101580.34
2023-05-11T12:02:26.140Z,101581.39
2023-05-11T12:04:59.329Z,101588.52
2023-05-11T12:07:13.847Z,101581.34
2023-05-11T12:09:26.704Z,101578.13
2023-05-11T12:11:40.644Z,101575.81
2023-05-11T12:13:53.474Z,101577.61
2023-05-11T12:16:19.771Z,101576.12
2023-05-11T12:18:32.579Z,101578.79
2023-05-11T12:20:45.046Z,101577.55
2023-05-11T12:22:57.595Z,101584.45
2023-05-11T12:25:14.507Z,101588.01
2023-05-11T12:27:29.895Z,101591.25
2023-05-11T12:29:42.454Z,101592.57
2023-05-11T12:31:54.960Z,101590.77
2023-05-11T12:34:07.528Z,101591.85
2023-05-11T12:36:21.351Z,101592.20
2023-05-11T12:38:35.425Z,101591.77
2023-05-11T12:40:53.059Z,101594.24
2023-05-11T12:43:05.664Z,101590.11
2023-05-11T12:45:21.149Z,101594.17
2023-05-11T12:47:34.323Z,101590.20
2023-05-11T12:49:47.330Z,101588.79
2023-05-11T12:52:09.853Z,101591.56
2023-05-11T12:54:33.381Z,101590.83
2023-05-11T12:56:55.104Z,101593.00
2023-05-11T12:59:08.353Z,101594.50
2023-05-11T13:01:27.388Z,101593.18
2023-05-11T13:03:39.937Z,101598.18
2023-05-11T13:05:52.720Z,101594.98
2023-05-11T13:08:06.829Z,101594.73
2023-05-11T13:10:30.151Z,101589.02
2023-05-11T13:12:54.308Z,101592.86
2023-05-11T13:15:14.480Z,101596.54
2023-05-11T13:17:40.155Z,101598.79
2023-05-11T13:19:52.692Z,101598.76
2023-05-11T13:22:05.340Z,101595.73
2023-05-11T13:24:25.612Z,101599.58
2023-05-11T13:26:38.152Z,101600.99
2023-05-11T13:28:58.389Z,101603.79
2023-05-11T13:31:22.092Z,101605.89
2023-05-11T13:33:35.814Z,101609.54
2023-05-11T13:35:48.785Z,101613.31
2023-05-11T13:38:01.648Z,101616.84
2023-05-11T13:40:15.944Z,101619.09
2023-05-11T13:42:29.234Z,101619.35
2023-05-11T13:44:41.785Z,101619.93
2023-05-11T13:46:54.140Z,101623.63
2023-05-11T13:49:06.623Z,101623.06
2023-05-11T13:51:18.896Z,101625.16
2023-05-11T13:53:31.286Z,101622.58
2023-05-11T13:55:45.471Z,101623.34
2023-05-11T13:57:58.116Z,101621.21
2023-05-11T14:00:12.075Z,101621.48
2023-05-11T14:02:25.931Z,101624.78
2023-05-11T14:04:38.654Z,101630.11
2023-05-11T14:06:51.387Z,101633.94
2023-05-11T14:09:04.125Z,101635.66
2023-05-11T14:11:16.450Z,101635.52
2023-05-11T14:13:29.283Z,101634.48
2023-05-11T14:15:41.586Z,101632.74
2023-05-11T14:17:54.448Z,101635.89
2023-05-11T14:20:07.621Z,101639.02
2023-05-11T14:22:20.010Z,101644.73
2023-05-11T14:24:32.389Z,101643.47
2023-05-11T14:26:44.850Z,101646.50
2023-05-11T14:28:57.903Z,101650.98
2023-05-11T14:31:10.847Z,101658.84
2023-05-11T14:33:23.488Z,101652.91
2023-05-11T14:35:39.070Z,101649.73
2023-05-11T14:37:52.075Z,101651.61
2023-05-11T14:40:04.784Z,101651.96
2023-05-11T14:42:17.848Z,101652.96
2023-05-11T14:44:31.211Z,101654.14
2023-05-11T14:46:43.769Z,101652.40
2023-05-11T14:48:57.775Z,101648.84
2023-05-11T14:51:10.550Z,101652.88
2023-05-11T14:53:23.763Z,101654.09
2023-05-11T14:55:36.497Z,101653.73
2023-05-11T14:57:48.885Z,101656.16
2023-05-11T15:00:01.692Z,101658.83
2023-05-11T15:02:14.130Z,101660.40
2023-05-11T15:04:27.082Z,101662.14
2023-05-11T15:06:40.205Z,101659.48
2023-05-11T15:08:53.567Z,101655.60
2023-05-11T15:11:06.213Z,101654.47
2023-05-11T15:13:20.971Z,101654.14
2023-05-11T15:15:35.270Z,101653.56
2023-05-11T15:17:47.715Z,101660.08
2023-05-11T15:20:00.546Z,101658.13
2023-05-11T15:22:13.107Z,101654.20
2023-05-11T15:24:25.810Z,101654.58
2023-05-11T15:26:38.503Z,101655.43
2023-05-11T15:28:50.807Z,101656.71
2023-05-11T15:31:03.142Z,101658.80
2023-05-11T15:33:17.033Z,101657.64
2023-05-11T15:35:29.819Z,101657.16
2023-05-11T15:37:42.382Z,101654.55
2023-05-11T15:39:55.210Z,101658.54
2023-05-11T15:42:09.922Z,101660.64
2023-05-11T15:44:22.533Z,101659.92
2023-05-11T15:46:37.450Z,101661.13
2023-05-11T15:48:50.070Z,101658.13
2023-05-11T15:51:03.937Z,101658.22
2023-05-11T15:53:16.652Z,101657.29
2023-05-11T15:55:31.840Z,101656.88
2023-05-11T15:57:44.769Z,101656.17
2023-05-11T15:59:57.426Z,101655.32
2023-05-11T16:02:10.935Z,101658.16
2023-05-11T16:04:23.483Z,101651.27
2023-05-11T16:06:36.370Z,101648.64
2023-05-11T16:08:49.592Z,101646.09
2023-05-11T16:11:01.840Z,101642.73
2023-05-11T16:13:15.177Z,101645.59
2023-05-11T16:15:28.340Z,101642.02
2023-05-11T16:17:43.378Z,101640.93
2023-05-11T16:19:56.600Z,101647.29
2023-05-11T16:22:09.160Z,101649.13
2023-05-11T16:24:21.768Z,101650.95
2023-05-11T16:26:34.658Z,101652.89
2023-05-11T16:28:47.149Z,101655.81
2023-05-11T16:31:00.251Z,101651.03
2023-05-11T16:33:15.517Z,101657.50
2023-05-11T16:35:27.841Z,101657.26
2023-05-11T16:37:40.206Z,101654.58
2023-05-11T16:39:53.605Z,101655.65
2023-05-11T16:42:08.002Z,101661.73
2023-05-11T16:44:20.742Z,101657.63
2023-05-11T16:46:33.869Z,101658.69
2023-05-11T16:48:47.569Z,101659.02
2023-05-11T16:51:00.570Z,101653.72
2023-05-11T16:53:14.556Z,101655.50
2023-05-11T16:55:28.543Z,101651.92
2023-05-11T16:57:41.357Z,101656.75
2023-05-11T16:59:54.025Z,101651.58
2023-05-11T17:02:09.435Z,101651.72
2023-05-11T17:04:22.016Z,101654.31
2023-05-11T17:06:38.396Z,101650.77
2023-05-11T17:08:51.721Z,101657.59
2023-05-11T17:11:04.288Z,101654.23
2023-05-11T17:13:16.918Z,101653.91
2023-05-11T17:15:29.554Z,101653.07
2023-05-11T17:17:43.666Z,101651.84
2023-05-11T17:19:56.836Z,101650.63
2023-05-11T17:22:10.936Z,101646.23
2023-05-11T17:24:24.431Z,101643.13
2023-05-11T17:26:47.060Z,101640.89
2023-05-11T17:29:01.267Z,101641.67
2023-05-11T17:31:18.544Z,101638.63
2023-05-11T17:33:31.910Z,101632.86
2023-05-11T17:35:45.339Z,101630.58
2023-05-11T17:37:57.959Z,101634.18
2023-05-11T17:40:12.812Z,101634.37
2023-05-11T17:42:26.030Z,101639.02
2023-05-11T17:44:38.472Z,101634.45
2023-05-11T17:46:53.010Z,101631.55
2023-05-11T17:49:06.352Z,101629.67
2023-05-11T17:51:19.405Z,101624.52
2023-05-11T17:53:32.096Z,101628.36
2023-05-11T17:55:46.305Z,101623.48
2023-05-11T17:57:58.761Z,101618.87
2023-05-11T18:00:13.986Z,101620.20
2023-05-11T18:02:26.828Z,101620.19
2023-05-11T18:04:39.801Z,101621.22
2023-05-11T18:06:53.078Z,101625.27
2023-05-11T18:09:06.993Z,101621.88
2023-05-11T18:11:20.235Z,101619.52
2023-05-11T18:13:33.571Z,101620.93
2023-05-11T18:15:46.805Z,101618.60
2023-05-11T18:17:59.330Z,101613.48
2023-05-11T18:20:14.868Z,101611.94
2023-05-11T18:22:31.255Z,101611.36
2023-05-11T18:24:45.159Z,101607.52
2023-05-11T18:26:57.442Z,101606.64
2023-05-11T18:29:10.017Z,101603.60
2023-05-11T18:31:22.856Z,101599.04
2023-05-11T18:33:36.115Z,101601.23
2023-05-11T18:35:49.134Z,101594.10
2023-05-11T18:38:05.199Z,101593.17
2023-05-11T18:40:19.245Z,101587.57
2023-05-11T18:42:31.978Z,101586.34
2023-05-11T18:44:44.138Z,101586.52
2023-05-11T18:46:56.964Z,101586.27
2023-05-11T18:49:12.783Z,101584.60
2023-05-11T18:51:27.465Z,101580.94
2023-05-11T18:53:40.936Z,101577.65
2023-05-11T18:55:53.858Z,101576.63
2023-05-11T18:58:08.625Z,101573.14
2023-05-11T19:00:21.463Z,101575.65
2023-05-11T19:02:34.580Z,101574.84
2023-05-11T19:04:47.346Z,101576.38
2023-05-11T19:07:01.493Z,101572.67
2023-05-11T19:09:15.167Z,101565.15
2023-05-11T19:11:28.418Z,101568.90
2023-05-11T19:13:43.113Z,101564.56
2023-05-11T19:15:56.081Z,101562.46
2023-05-11T19:18:08.949Z,101560.32
2023-05-11T19:20:21.780Z,101557.58
2023-05-11T19:22:34.914Z,101556.66
2023-05-11T19:24:48.368Z,101557.10
2023-05-11T19:27:07.109Z,101551.75
2023-05-11T19:29:23.487Z,101552.34
2023-05-11T19:31:36.606Z,101550.37
2023-05-11T19:33:49.303Z,101550.15
2023-05-11T19:36:01.964Z,101546.66
2023-05-11T19:38:15.232Z,101544.84
2023-05-11T19:40:45.559Z,101544.76
2023-05-11T19:42:59.996Z,101538.02
2023-05-11T19:45:14.980Z,101535.63
2023-05-11T19:47:28.109Z,101535.05
2023-05-11T19:49:41.123Z,101533.51
2023-05-11T19:51:55.008Z,101535.86
2023-05-11T19:54:08.588Z,101532.79
2023-05-11T19:56:22.072Z,101527.86
2023-05-11T19:58:34.977Z,101526.26
2023-05-11T20:00:47.881Z,101526.77
2023-05-11T20:03:00.777Z,101525.41
2023-05-11T20:05:15.092Z,101523.30
2023-05-11T20:07:29.086Z,101521.09
2023-05-11T20:09:42.710Z,101512.95
2023-05-11T20:11:54.972Z,101513.98
2023-05-11T20:14:07.954Z,101513.00
2023-05-11T20:16:20.712Z,101505.64
2023-05-11T20:18:36.756Z,101500.46
2023-05-11T20:20:49.814Z,101497.09
2023-05-11T20:23:06.513Z,101497.35
2023-05-11T20:25:19.130Z,101492.86
2023-05-11T20:27:33.919Z,101488.15
2023-05-11T20:29:46.409Z,101486.98
2023-05-11T20:31:59.405Z,101485.54
2023-05-11T20:34:12.876Z,101480.05
2023-05-11T20:36:25.606Z,101479.92
2023-05-11T20:38:38.959Z,101474.73
2023-05-11T20:40:51.623Z,101474.39
2023-05-11T20:43:04.801Z,101469.31
2023-05-11T20:45:18.216Z,101469.39
2023-05-11T20:47:32.704Z,101465.30
2023-05-11T20:49:45.267Z,101463.14
2023-05-11T20:51:57.764Z,101458.56
2023-05-11T20:54:10.795Z,101454.58
2023-05-11T20:56:23.610Z,101449.51
2023-05-11T20:58:38.193Z,101447.62
2023-05-11T21:00:50.502Z,101441.77
2023-05-11T21:03:03.251Z,101439.58
2023-05-11T21:05:15.873Z,101438.51
2023-05-11T21:07:29.469Z,101437.23
2023-05-11T21:09:42.608Z,101440.36
2023-05-11T21:11:54.988Z,101436.04
2023-05-11T21:14:07.888Z,101435.20
2023-05-11T21:16:20.282Z,101431.92
2023-05-11T21:18:35.667Z,101430.23
2023-05-11T21:20:48.376Z,101431.77
2023-05-11T21:23:01.457Z,101428.20
2023-05-11T21:25:15.452Z,101430.40
2023-05-11T21:27:28.202Z,101428.92
2023-05-11T21:29:42.444Z,101432.34
2023-05-11T21:31:56.643Z,101427.27
2023-05-11T21:34:09.356Z,101427.65
2023-05-11T21:36:23.241Z,101422.02
2023-05-11T21:38:36.128Z,101423.19
2023-05-11T21:40:53.672Z,101423.93
2023-05-11T21:43:07.204Z,101422.52
2023-05-11T21:45:21.659Z,101424.14
2023-05-11T21:47:34.419Z,101414.91
2023-05-11T21:49:48.971Z,101415.09
2023-05-11T21:52:02.843Z,101416.13
2023-05-11T21:54:15.706Z,101412.23
2023-05-11T21:56:28.016Z,101409.86
2023-05-11T21:58:40.305Z,101410.17
2023-05-11T22:00:53.271Z,101408.72
2023-05-11T22:03:05.620Z,101406.75
2023-05-11T22:05:19.018Z,101402.70
2023-05-11T22:07:31.408Z,101399.70
2023-05-11T22:09:44.252Z,101399.23
2023-05-11T22:11:56.534Z,101392.91
2023-05-11T22:14:08.997Z,101393.89
2023-05-11T22:16:21.954Z,101390.09
2023-05-11T22:18:34.882Z,101388.09
2023-05-11T22:20:47.154Z,101385.63
2023-05-11T22:22:59.622Z,101379.29
2023-05-11T22:25:14.156Z,101374.89
2023-05-11T22:27:27.275Z,101373.13
2023-05-11T22:29:40.685Z,101371.72
2023-05-11T22:31:53.136Z,101369.16
2023-05-11T22:34:05.975Z,101367.91
2023-05-11T22:36:18.873Z,101368.63
2023-05-11T22:38:31.663Z,101363.84
2023-05-11T22:40:44.112Z,101358.70
2023-05-11T22:42:56.541Z,101357.40
2023-05-11T22:45:09.592Z,101351.00
2023-05-11T22:47:22.609Z,101349.63
2023-05-11T22:49:35.072Z,101346.45
2023-05-11T22:51:47.513Z,101341.27
2023-05-11T22:53:59.979Z,101342.72
2023-05-11T22:56:12.700Z,101335.46
2023-05-11T22:58:26.169Z,101333.75
2023-05-11T23:00:39.052Z,101335.20
2023-05-11T23:02:51.953Z,101332.13
2023-05-11T23:05:04.585Z,101329.52
2023-05-11T23:07:17.019Z,101329.92
2023-05-11T23:09:30.197Z,101329.52
2023-05-11T23:11:42.837Z,101326.80
2023-05-11T23:13:55.454Z,101322.65
2023-05-11T23:16:08.126Z,101323.59
2023-05-11T23:18:20.587Z,101320.33
2023-05-11T23:20:33.438Z,101321.43
2023-05-11T23:22:46.331Z,101321.35
2023-05-11T23:25:01.430Z,101315.36
2023-05-11T23:27:14.476Z,101318.54
2023-05-11T23:29:28.120Z,101312.19
2023-05-11T23:31:41.097Z,101314.89
2023-05-11T23:33:54.213Z,101310.15
2023-05-11T23:36:06.783Z,101315.39
2023-05-11T23:38:19.458Z,101318.17
2023-05-11T23:40:32.228Z,101313.36
2023-05-11T23:42:44.708Z,101310.81
2023-05-11T23:44:57.199Z,101307.11
2023-05-11T23:47:10.630Z,101304.14
2023-05-11T23:49:23.503Z,101304.16
2023-05-11T23:51:36.353Z,101303.26
2023-05-11T23:53:50.758Z,101300.63
2023-05-11T23:56:03.121Z,101300.73
2023-05-11T23:58:15.577Z,101298.27
